Time;durP1;ratioP1;P1;durP2;ratioP2;P2;SDS_P1;SDS_P2;PMS_P1;PMS_P2;Temp;Humidity;BMP_temperature;BMP_pressure;BME280_temperature;BME280_humidity;BME280_pressure;Samples;Min_cycle;Max_cycle;Signal;HPM_P1;HPM_P2
2022/04/24 00:00:21;;;;;;;78.90;35.00;;;;;;;2.39;83.88;98528.13;103472;1303;25002;-30
2022/04/24 00:02:50;;;;;;;69.20;34.30;;;;;;;2.37;83.74;98526.70;103270;1303;25022;-27
2022/04/24 00:05:19;;;;;;;54.90;29.90;;;;;;;2.31;83.40;98524.65;103454;1303;24239;-28
2022/04/24 00:07:48;;;;;;;55.40;27.30;;;;;;;2.26;83.96;98521.87;103448;1303;22905;-28
2022/04/24 00:10:17;;;;;;;55.90;26.90;;;;;;;2.22;83.91;98521.08;103443;1303;22529;-30
2022/04/24 00:12:48;;;;;;;69.80;33.10;;;;;;;2.19;83.65;98517.20;103268;1303;24458;-27
2022/04/24 00:15:17;;;;;;;71.30;29.20;;;;;;;2.15;83.80;98514.44;103485;1303;22503;-29
2022/04/24 00:17:46;;;;;;;79.00;30.20;;;;;;;2.13;85.14;98508.41;103385;1303;22492;-28
2022/04/24 00:20:15;;;;;;;73.20;30.80;;;;;;;2.15;84.87;98505.77;103398;1303;23858;-28
2022/04/24 00:22:44;;;;;;;62.60;31.80;;;;;;;2.14;84.37;98499.77;103483;1303;22504;-29
2022/04/24 00:25:13;;;;;;;68.90;30.20;;;;;;;2.09;85.17;98499.84;103456;1303;24983;-25
2022/04/24 00:27:42;;;;;;;81.60;31.00;;;;;;;2.07;86.35;98496.59;103415;1303;24250;-29
2022/04/24 00:30:11;;;;;;;70.80;33.30;;;;;;;2.05;85.99;98494.67;103387;1304;23751;-25
2022/04/24 00:32:40;;;;;;;58.10;27.30;;;;;;;2.05;86.23;98490.64;103452;1303;22515;-28
2022/04/24 00:35:09;;;;;;;87.30;32.40;;;;;;;2.03;86.31;98488.44;103405;1303;24995;-30
2022/04/24 00:37:38;;;;;;;85.10;38.30;;;;;;;2.04;86.38;98482.71;103526;1303;23636;-24
2022/04/24 00:40:08;;;;;;;58.00;28.70;;;;;;;2.08;85.97;98485.27;103347;1303;24294;-26
2022/04/24 00:42:37;;;;;;;47.20;23.20;;;;;;;2.05;89.95;98482.39;103428;1303;23959;-30
2022/04/24 00:45:06;;;;;;;51.10;23.00;;;;;;;2.09;92.93;98480.31;103421;1303;24297;-26
2022/04/24 00:47:35;;;;;;;39.00;19.20;;;;;;;2.11;96.55;98483.76;103440;1303;23612;-25
2022/04/24 00:50:05;;;;;;;60.20;27.10;;;;;;;2.11;95.48;98480.41;103498;1303;23610;-29
2022/04/24 00:52:35;;;;;;;58.40;25.50;;;;;;;2.10;92.87;98477.33;103425;1303;24234;-24
2022/04/24 00:55:05;;;;;;;46.30;18.90;;;;;;;2.09;94.29;98477.83;103468;1303;23593;-27
2022/04/24 00:57:34;;;;;;;53.80;25.50;;;;;;;2.10;94.78;98475.54;103377;1303;24281;-25
2022/04/24 01:00:04;;;;;;;61.20;29.40;;;;;;;2.11;91.15;98476.89;103388;1303;25091;-29
2022/04/24 01:02:34;;;;;;;61.80;24.90;;;;;;;2.01;89.62;98473.36;103402;1303;25015;-30
2022/04/24 01:05:03;;;;;;;58.90;24.70;;;;;;;1.96;88.84;98479.17;103410;1303;22503;-27
2022/04/24 01:07:32;;;;;;;43.70;23.70;;;;;;;1.89;89.19;98474.00;103477;1303;25125;-29
2022/04/24 01:10:01;;;;;;;50.20;22.60;;;;;;;1.82;89.38;98469.52;103489;1303;24252;-25
2022/04/24 01:12:31;;;;;;;55.00;26.70;;;;;;;1.80;88.93;98465.52;103384;1303;23800;-24
2022/04/24 01:15:00;;;;;;;40.80;24.00;;;;;;;1.83;88.57;98461.73;103481;1303;22764;-27
2022/04/24 01:17:28;;;;;;;44.20;21.70;;;;;;;1.85;88.44;98463.21;103443;1303;24282;-31
2022/04/24 01:19:57;;;;;;;54.70;26.50;;;;;;;1.88;88.02;98460.16;103415;1303;25014;-26
2022/04/24 01:22:26;;;;;;;48.50;22.90;;;;;;;1.87;88.05;98459.67;103427;1303;23609;-27
2022/04/24 01:24:55;;;;;;;45.10;22.70;;;;;;;1.85;88.67;98457.21;103445;1303;23813;-29
2022/04/24 01:27:24;;;;;;;33.20;16.60;;;;;;;1.84;91.41;98452.02;103404;1303;22513;-25
2022/04/24 01:29:53;;;;;;;34.40;17.60;;;;;;;1.86;94.17;98449.15;103348;1303;24225;-25
2022/04/24 01:32:22;;;;;;;34.80;20.50;;;;;;;1.92;96.20;98448.59;103453;1303;22690;-25
2022/04/24 01:34:51;;;;;;;40.30;21.20;;;;;;;1.96;95.06;98448.48;103484;1303;24246;-26
2022/04/24 01:37:20;;;;;;;29.60;16.10;;;;;;;1.96;96.21;98446.04;103461;1303;24970;-28
2022/04/24 01:39:49;;;;;;;27.10;15.40;;;;;;;1.95;97.64;98443.30;103373;1303;24359;-29
2022/04/24 01:42:18;;;;;;;25.20;13.90;;;;;;;1.94;98.00;98445.02;103518;1303;22870;-29
2022/04/24 01:44:47;;;;;;;43.30;18.80;;;;;;;1.95;98.04;98448.02;103397;1303;24300;-25
2022/04/24 01:47:16;;;;;;;38.60;20.40;;;;;;;1.97;96.17;98451.58;103432;1303;24237;-25
2022/04/24 01:49:45;;;;;;;39.20;20.80;;;;;;;1.96;92.95;98449.17;103407;1303;24455;-28
2022/04/24 01:52:14;;;;;;;33.00;17.70;;;;;;;1.96;91.28;98446.89;103458;1303;25101;-29
2022/04/24 01:54:43;;;;;;;32.70;18.20;;;;;;;1.99;90.46;98444.42;103411;1303;24454;-29
2022/04/24 01:57:12;;;;;;;38.00;18.70;;;;;;;2.03;90.50;98440.88;103421;1303;22626;-29
2022/04/24 01:59:41;;;;;;;33.70;16.50;;;;;;;2.03;90.75;98439.98;103430;1303;22914;-29
2022/04/24 02:02:10;;;;;;;35.00;17.20;;;;;;;2.01;90.94;98437.16;103441;1303;23946;-29
2022/04/24 02:04:39;;;;;;;28.70;15.40;;;;;;;1.99;91.54;98438.23;103409;1303;24999;-29
2022/04/24 02:07:08;;;;;;;27.50;15.50;;;;;;;2.03;91.85;98434.48;103418;1303;23597;-26
2022/04/24 02:09:39;;;;;;;58.60;17.60;;;;;;;2.04;91.33;98433.86;103415;1303;23799;-28
2022/04/24 02:12:08;;;;;;;31.90;17.80;;;;;;;2.02;90.91;98431.44;103436;1303;23873;-25
2022/04/24 02:14:37;;;;;;;33.80;18.70;;;;;;;1.96;92.07;98428.00;103344;1303;24247;-28
2022/04/24 02:17:06;;;;;;;36.20;19.70;;;;;;;1.97;92.68;98425.65;103447;1303;24028;-27
2022/04/24 02:19:35;;;;;;;25.00;12.30;;;;;;;1.91;92.16;98421.64;103450;1303;25040;-28
2022/04/24 02:22:05;;;;;;;29.90;13.70;;;;;;;1.90;93.27;98414.59;103494;1303;22731;-28
2022/04/24 02:24:34;;;;;;;22.70;12.80;;;;;;;1.89;92.54;98419.46;103382;1303;22534;-31
2022/04/24 02:27:03;;;;;;;23.50;13.60;;;;;;;1.90;93.37;98420.55;103446;1303;24249;-29
2022/04/24 02:29:33;;;;;;;58.10;23.80;;;;;;;1.87;94.29;98414.54;103449;1303;23749;-25
2022/04/24 02:32:02;;;;;;;28.40;16.80;;;;;;;1.86;92.38;98411.74;103435;1303;23811;-29
2022/04/24 02:34:31;;;;;;;28.60;14.40;;;;;;;1.83;91.50;98407.31;103482;1303;23799;-25
2022/04/24 02:37:00;;;;;;;24.90;14.70;;;;;;;1.77;94.61;98398.44;103495;1303;22945;-31
2022/04/24 02:39:29;;;;;;;31.30;13.40;;;;;;;1.77;96.35;98399.02;103436;1303;23749;-27
2022/04/24 02:41:58;;;;;;;23.40;12.20;;;;;;;1.79;96.66;98398.45;103294;1304;24379;-25
2022/04/24 02:44:27;;;;;;;27.60;13.70;;;;;;;1.80;97.19;98392.09;103500;1303;23734;-28
2022/04/24 02:46:56;;;;;;;25.00;13.00;;;;;;;1.79;98.32;98388.55;103535;1303;22514;-25
2022/04/24 02:49:25;;;;;;;33.10;15.20;;;;;;;1.79;98.79;98383.71;103471;1303;24016;-28
2022/04/24 02:51:54;;;;;;;26.20;12.80;;;;;;;1.81;98.91;98387.46;103515;1303;23614;-25
2022/04/24 02:54:23;;;;;;;33.80;16.60;;;;;;;1.82;98.38;98389.64;103420;1303;23748;-26
2022/04/24 02:56:52;;;;;;;38.90;19.80;;;;;;;1.83;96.11;98392.81;103475;1303;24554;-25
2022/04/24 02:59:21;;;;;;;29.90;17.80;;;;;;;1.74;93.30;98395.42;103496;1303;22842;-26
2022/04/24 03:01:50;;;;;;;36.30;20.10;;;;;;;1.72;92.31;98392.05;103476;1303;22632;-24
2022/04/24 03:04:19;;;;;;;29.10;17.20;;;;;;;1.67;92.47;98388.55;103317;1303;24355;-25
2022/04/24 03:06:49;;;;;;;39.30;19.20;;;;;;;1.69;92.21;98388.04;103461;1303;25050;-25
2022/04/24 03:09:18;;;;;;;43.70;20.70;;;;;;;1.75;91.85;98387.39;103434;1303;22608;-28
2022/04/24 03:11:47;;;;;;;44.70;22.70;;;;;;;1.77;91.91;98389.20;103469;1303;22633;-29
2022/04/24 03:14:16;;;;;;;51.70;23.90;;;;;;;1.87;92.37;98384.67;103437;1303;24218;-26
2022/04/24 03:16:45;;;;;;;42.50;23.20;;;;;;;1.92;92.69;98380.27;103420;1303;25096;-25
2022/04/24 03:19:13;;;;;;;49.30;26.80;;;;;;;1.90;92.72;98375.84;103453;1303;22523;-29
2022/04/24 03:21:42;;;;;;;48.60;25.40;;;;;;;1.91;93.02;98374.19;103464;1303;23781;-28
2022/04/24 03:24:11;;;;;;;45.20;24.70;;;;;;;1.93;93.25;98372.04;103411;1303;23557;-29
2022/04/24 03:26:41;;;;;;;46.40;27.00;;;;;;;1.97;93.54;98370.54;103457;1303;24249;-29
2022/04/24 03:29:10;;;;;;;54.10;28.80;;;;;;;1.96;93.72;98371.69;103429;1303;23947;-29
2022/04/24 03:31:39;;;;;;;55.50;28.90;;;;;;;1.94;93.74;98375.34;103446;1303;22499;-25
2022/04/24 03:34:08;;;;;;;58.90;31.00;;;;;;;1.98;94.01;98372.22;103456;1303;25120;-29
2022/04/24 03:36:37;;;;;;;59.70;33.20;;;;;;;1.99;94.14;98372.82;103490;1303;22793;-28
2022/04/24 03:39:06;;;;;;;49.50;28.40;;;;;;;2.00;94.22;98375.13;103320;1303;22496;-25
2022/04/24 03:41:35;;;;;;;52.10;26.70;;;;;;;2.02;94.34;98371.16;103458;1303;23587;-31
2022/04/24 03:44:04;;;;;;;56.80;28.60;;;;;;;2.05;94.37;98367.02;103477;1303;22825;-25
2022/04/24 03:46:33;;;;;;;50.10;27.90;;;;;;;2.09;94.41;98367.45;103467;1303;24258;-31
2022/04/24 03:49:02;;;;;;;45.70;24.80;;;;;;;2.12;94.56;98370.81;103437;1303;25021;-29
2022/04/24 03:51:31;;;;;;;47.70;25.00;;;;;;;2.18;94.59;98373.89;103464;1303;22501;-28
2022/04/24 03:54:00;;;;;;;48.20;24.40;;;;;;;2.22;94.47;98372.21;103456;1303;24253;-25
2022/04/24 03:56:31;;;;;;;45.20;23.40;;;;;;;2.25;94.18;98366.55;103460;1303;25011;-25
2022/04/24 03:59:01;;;;;;;40.90;20.00;;;;;;;2.25;94.40;98367.09;103381;1303;24043;-28
2022/04/24 04:01:30;;;;;;;28.30;15.70;;;;;;;2.34;95.55;98369.27;103453;1303;24053;-29
2022/04/24 04:03:59;;;;;;;30.10;18.00;;;;;;;2.51;95.78;98365.76;103483;1303;24233;-29
2022/04/24 04:06:28;;;;;;;46.00;24.40;;;;;;;2.69;95.47;98359.59;103243;1303;23848;-29
2022/04/24 04:08:57;;;;;;;59.40;27.90;;;;;;;2.78;94.98;98358.33;103465;1303;22748;-25
2022/04/24 04:11:28;;;;;;;59.10;27.70;;;;;;;2.87;93.80;98357.56;103488;1303;22513;-27
2022/04/24 04:13:57;;;;;;;49.20;26.40;;;;;;;2.93;93.35;98356.31;103469;1303;22498;-23
2022/04/24 04:16:26;;;;;;;41.30;25.90;;;;;;;2.96;93.18;98358.68;103044;1303;558983;-27
2022/04/24 04:18:55;;;;;;;48.90;26.60;;;;;;;3.05;93.06;98359.55;103444;1303;23774;-28
2022/04/24 04:21:24;;;;;;;58.50;27.10;;;;;;;3.17;92.92;98361.52;103363;1303;22498;-25
2022/04/24 04:23:53;;;;;;;38.50;25.00;;;;;;;3.24;92.44;98359.98;103435;1303;22511;-24
2022/04/24 04:26:22;;;;;;;49.20;25.00;;;;;;;3.25;92.16;98360.08;103491;1303;23750;-25
2022/04/24 04:28:51;;;;;;;50.60;27.20;;;;;;;3.24;91.81;98358.26;103443;1302;24406;-27
2022/04/24 04:31:20;;;;;;;40.20;23.80;;;;;;;3.24;91.88;98359.62;103421;1303;22631;-28
2022/04/24 04:33:49;;;;;;;40.40;22.60;;;;;;;3.36;91.85;98362.09;103266;1303;23760;-29
2022/04/24 04:36:18;;;;;;;51.70;23.80;;;;;;;3.43;91.64;98368.13;103474;1303;22660;-28
2022/04/24 04:38:47;;;;;;;29.80;16.30;;;;;;;3.51;91.43;98371.05;103456;1303;25516;-29
2022/04/24 04:41:16;;;;;;;28.70;16.20;;;;;;;3.55;90.93;98369.84;103452;1303;24304;-25
2022/04/24 04:43:45;;;;;;;34.40;15.30;;;;;;;3.53;90.25;98370.75;103408;1303;24302;-29
2022/04/24 04:46:14;;;;;;;30.70;15.80;;;;;;;3.52;89.94;98368.14;103434;1303;23523;-28
2022/04/24 04:48:43;;;;;;;18.70;12.30;;;;;;;3.61;90.42;98364.98;103428;1303;24105;-29
2022/04/24 04:51:12;;;;;;;32.30;18.80;;;;;;;3.72;90.86;98362.48;103409;1303;23586;-25
2022/04/24 04:53:40;;;;;;;37.00;18.80;;;;;;;3.74;91.24;98360.99;103442;1303;22517;-24
2022/04/24 04:56:09;;;;;;;44.00;26.10;;;;;;;4.02;91.43;98362.34;103475;1303;24291;-29
2022/04/24 04:58:38;;;;;;;42.50;24.40;;;;;;;4.37;90.97;98365.63;103460;1303;24297;-28
2022/04/24 05:01:07;;;;;;;44.30;27.80;;;;;;;4.52;90.19;98367.95;103488;1303;24976;-25
2022/04/24 05:03:36;;;;;;;40.40;23.90;;;;;;;4.75;89.91;98357.68;103424;1303;25222;-25
2022/04/24 05:06:05;;;;;;;43.50;24.00;;;;;;;4.98;89.55;98359.69;103471;1303;23609;-25
2022/04/24 05:08:34;;;;;;;38.00;21.40;;;;;;;5.34;88.97;98362.80;103425;1303;23810;-27
2022/04/24 05:11:03;;;;;;;33.20;22.10;;;;;;;5.78;88.89;98365.54;103415;1303;24003;-29
2022/04/24 05:13:32;;;;;;;34.80;22.00;;;;;;;6.28;88.85;98371.52;103453;1303;23610;-24
2022/04/24 05:16:01;;;;;;;32.90;22.50;;;;;;;6.69;87.94;98371.30;103461;1303;22516;-27
2022/04/24 05:18:30;;;;;;;37.40;22.10;;;;;;;6.87;86.44;98375.59;103265;1303;22503;-28
2022/04/24 05:21:01;;;;;;;31.60;20.10;;;;;;;7.07;86.21;98370.52;103457;1303;24240;-28
2022/04/24 05:23:30;;;;;;;35.00;20.00;;;;;;;7.22;84.78;98375.74;103464;1303;24292;-25
2022/04/24 05:25:59;;;;;;;40.30;20.90;;;;;;;7.53;85.27;98375.30;103260;1303;24295;-29
2022/04/24 05:28:28;;;;;;;30.90;17.50;;;;;;;7.89;84.17;98375.89;103452;1303;22875;-25
2022/04/24 05:30:57;;;;;;;41.50;17.40;;;;;;;7.99;82.83;98373.72;103460;1303;23596;-24
2022/04/24 05:33:26;;;;;;;29.60;18.80;;;;;;;7.99;82.39;98374.58;103406;1303;24090;-28
2022/04/24 05:35:55;;;;;;;34.90;20.50;;;;;;;7.97;82.58;98372.89;103446;1303;22764;-28
2022/04/24 05:38:24;;;;;;;36.00;19.80;;;;;;;8.06;82.98;98378.04;103501;1303;22511;-28
2022/04/24 05:40:52;;;;;;;28.40;18.10;;;;;;;8.14;83.01;98378.52;103483;1303;24419;-24
2022/04/24 05:43:21;;;;;;;30.80;19.90;;;;;;;8.22;82.60;98374.48;103434;1303;23382;-25
2022/04/24 05:45:50;;;;;;;29.50;18.80;;;;;;;8.28;82.68;98371.41;103435;1303;24982;-26
2022/04/24 05:48:19;;;;;;;27.50;19.00;;;;;;;8.35;82.61;98364.73;103476;1303;22888;-29
2022/04/24 05:50:48;;;;;;;23.50;17.40;;;;;;;8.38;81.79;98360.59;103437;1303;23914;-29
2022/04/24 05:53:17;;;;;;;36.60;17.50;;;;;;;8.42;81.52;98358.46;103478;1303;23663;-25
2022/04/24 05:55:46;;;;;;;22.90;15.70;;;;;;;8.40;81.19;98361.78;103454;1303;23978;-28
2022/04/24 05:58:15;;;;;;;23.90;16.40;;;;;;;8.47;81.06;98365.70;103437;1303;23749;-25
2022/04/24 06:00:45;;;;;;;40.00;20.40;;;;;;;8.50;80.38;98369.52;103505;1303;22513;-29
2022/04/24 06:03:14;;;;;;;29.20;18.80;;;;;;;8.47;80.11;98366.06;103346;1304;24207;-29
2022/04/24 06:05:45;;;;;;;28.50;19.10;;;;;;;8.45;79.86;98367.48;103533;1303;22726;-28
2022/04/24 06:08:15;;;;;;;25.50;18.30;;;;;;;8.46;79.75;98366.16;103435;1303;22638;-27
2022/04/24 06:10:44;;;;;;;29.10;20.30;;;;;;;8.50;79.70;98367.35;103454;1303;23641;-26
2022/04/24 06:13:13;;;;;;;33.20;21.90;;;;;;;8.60;79.63;98367.54;103409;1303;25360;-28
2022/04/24 06:15:42;;;;;;;32.90;19.80;;;;;;;8.62;79.29;98363.17;103490;1303;23811;-25
2022/04/24 06:18:11;;;;;;;28.50;18.70;;;;;;;8.72;79.55;98355.95;103496;1303;22510;-25
2022/04/24 06:20:43;;;;;;;22.90;16.80;;;;;;;8.85;79.01;98352.35;103494;1303;23608;-29
2022/04/24 06:23:12;;;;;;;29.10;18.50;;;;;;;9.02;78.62;98351.30;103483;1303;24253;-25
2022/04/24 06:25:41;;;;;;;27.40;18.00;;;;;;;9.18;78.09;98343.56;103451;1303;25223;-28
2022/04/24 06:28:10;;;;;;;62.70;33.00;;;;;;;9.31;77.57;98339.00;103311;1304;22762;-30
2022/04/24 06:30:40;;;;;;;76.30;35.70;;;;;;;9.37;77.03;98335.02;103272;1303;22518;-28
2022/04/24 06:33:10;;;;;;;57.90;28.30;;;;;;;9.38;76.70;98331.84;103485;1303;22775;-25
2022/04/24 06:35:40;;;;;;;44.70;22.50;;;;;;;9.53;76.49;98327.63;103253;1304;24240;-25
2022/04/24 06:38:09;;;;;;;31.60;18.80;;;;;;;9.57;75.58;98330.30;103321;1303;25164;-27
2022/04/24 06:40:38;;;;;;;50.10;23.10;;;;;;;9.68;75.03;98326.00;103445;1303;22593;-27
2022/04/24 06:43:07;;;;;;;43.50;21.20;;;;;;;9.93;74.78;98320.90;103449;1303;24246;-31
2022/04/24 06:45:38;;;;;;;22.00;16.20;;;;;;;10.04;73.63;98314.41;103472;1303;24215;-28
2022/04/24 06:48:10;;;;;;;38.70;19.70;;;;;;;10.02;72.87;98319.34;103479;1303;26288;-25
2022/04/24 06:50:40;;;;;;;35.10;21.60;;;;;;;10.16;72.23;98309.89;103457;1303;25098;-25
2022/04/24 06:53:12;;;;;;;43.40;22.60;;;;;;;10.16;72.23;98311.98;103460;1303;25225;-25
2022/04/24 06:55:41;;;;;;;32.10;21.80;;;;;;;10.29;72.18;98311.07;103508;1303;25646;-24
2022/04/24 06:58:14;;;;;;;40.80;23.30;;;;;;;10.43;71.08;98307.39;103392;1302;24245;-24
2022/04/24 07:00:45;;;;;;;37.70;22.00;;;;;;;10.33;70.88;98302.73;103473;1303;24261;-29
2022/04/24 07:03:16;;;;;;;28.40;18.40;;;;;;;10.34;71.51;98293.89;103387;1303;24999;-28
2022/04/24 07:05:45;;;;;;;34.80;20.80;;;;;;;10.44;71.32;98293.29;103413;1303;25927;-30
2022/04/24 07:08:14;;;;;;;43.20;24.70;;;;;;;10.67;70.55;98288.16;103499;1303;22501;-25
2022/04/24 07:10:43;;;;;;;53.20;31.40;;;;;;;10.74;69.70;98288.79;103467;1303;22607;-25
2022/04/24 07:13:12;;;;;;;44.00;25.50;;;;;;;10.55;70.70;98285.87;103501;1303;22527;-29
2022/04/24 07:15:42;;;;;;;46.20;24.80;;;;;;;10.76;69.99;98274.46;103452;1303;23954;-26
2022/04/24 07:18:11;;;;;;;49.20;24.80;;;;;;;10.72;70.33;98272.16;103404;1303;22520;-29
2022/04/24 07:20:40;;;;;;;57.60;26.50;;;;;;;10.98;69.58;98277.54;103451;1303;22969;-27
2022/04/24 07:23:11;;;;;;;27.00;18.20;;;;;;;11.00;69.34;98282.18;103439;1303;23472;-26
2022/04/24 07:25:43;;;;;;;28.80;17.30;;;;;;;11.13;68.88;98279.86;103438;1303;24214;-28
2022/04/24 07:28:13;;;;;;;24.40;17.40;;;;;;;11.31;67.88;98279.13;103499;1303;23602;-31
2022/04/24 07:30:42;;;;;;;40.10;23.00;;;;;;;11.43;67.42;98275.26;103341;1303;22530;-31
2022/04/24 07:33:11;;;;;;;27.90;18.00;;;;;;;11.55;66.54;98275.66;103419;1303;24097;-25
2022/04/24 07:35:41;;;;;;;38.90;20.70;;;;;;;11.56;66.02;98275.44;103437;1303;23523;-29
2022/04/24 07:38:10;;;;;;;43.50;24.30;;;;;;;11.50;66.13;98275.00;103463;1303;24338;-25
2022/04/24 07:40:39;;;;;;;75.10;41.50;;;;;;;11.67;65.47;98273.54;103457;1303;24231;-25
2022/04/24 07:43:10;;;;;;;36.70;20.10;;;;;;;11.64;65.53;98267.13;103433;1303;23011;-24
2022/04/24 07:45:39;;;;;;;79.50;39.80;;;;;;;11.66;65.02;98263.20;103450;1303;24005;-25
2022/04/24 07:48:10;;;;;;;32.80;18.70;;;;;;;11.72;65.09;98261.78;103472;1303;24970;-24
2022/04/24 07:50:42;;;;;;;32.80;18.60;;;;;;;11.81;64.90;98258.23;103459;1303;25232;-29
2022/04/24 07:53:12;;;;;;;26.80;16.10;;;;;;;11.96;63.77;98249.25;103483;1303;24980;-25
2022/04/24 07:55:42;;;;;;;29.30;18.60;;;;;;;12.20;62.76;98244.58;103449;1303;23778;-27
2022/04/24 07:58:12;;;;;;;28.30;18.40;;;;;;;12.34;62.98;98247.10;103424;1303;22512;-28
2022/04/24 08:00:41;;;;;;;35.10;21.70;;;;;;;12.74;60.30;98242.86;103538;1303;24210;-28
2022/04/24 08:03:11;;;;;;;22.00;15.70;;;;;;;12.65;59.64;98242.35;103452;1303;22841;-29
2022/04/24 08:05:42;;;;;;;25.10;16.70;;;;;;;12.81;58.99;98244.35;103455;1303;22626;-27
2022/04/24 08:08:14;;;;;;;24.20;16.70;;;;;;;12.90;57.83;98242.75;103471;1303;25225;-28
2022/04/24 08:10:47;;;;;;;27.10;17.20;;;;;;;12.78;58.31;98248.11;103484;1303;24236;-25
2022/04/24 08:13:17;;;;;;;19.00;14.40;;;;;;;12.80;58.27;98251.06;103305;1303;22506;-25
2022/04/24 08:15:47;;;;;;;23.20;15.70;;;;;;;12.83;57.71;98251.73;103484;1303;22650;-30
2022/04/24 08:18:17;;;;;;;48.60;25.50;;;;;;;12.83;57.83;98256.95;103464;1303;22629;-26
2022/04/24 08:20:46;;;;;;;55.30;32.70;;;;;;;12.89;57.41;98257.34;103294;1303;24250;-29
2022/04/24 08:23:16;;;;;;;41.10;21.20;;;;;;;12.86;56.85;98253.82;103472;1303;23848;-29
2022/04/24 08:25:45;;;;;;;60.60;32.20;;;;;;;12.95;56.49;98258.69;103495;1303;23800;-25
2022/04/24 08:28:14;;;;;;;32.10;18.30;;;;;;;13.06;55.41;98262.20;103259;1303;23896;-25
2022/04/24 08:30:45;;;;;;;36.20;17.70;;;;;;;12.84;55.77;98259.70;103451;1303;24970;-29
2022/04/24 08:33:15;;;;;;;50.00;32.50;;;;;;;12.75;56.44;98261.21;103436;1303;25235;-29
2022/04/24 08:35:45;;;;;;;22.00;15.10;;;;;;;12.74;56.62;98262.74;103426;1303;23813;-25
2022/04/24 08:38:14;;;;;;;27.70;17.20;;;;;;;12.75;56.54;98255.88;103333;1303;24013;-29
2022/04/24 08:40:45;;;;;;;23.10;15.20;;;;;;;12.67;56.07;98252.79;103373;1303;22505;-30
2022/04/24 08:43:14;;;;;;;27.60;14.30;;;;;;;12.51;57.09;98251.66;103467;1303;22629;-25
2022/04/24 08:45:44;;;;;;;16.30;13.30;;;;;;;12.54;56.85;98246.06;103430;1303;23524;-28
2022/04/24 08:48:13;;;;;;;15.70;12.80;;;;;;;12.45;57.06;98247.77;103465;1303;24210;-25
2022/04/24 08:50:42;;;;;;;25.80;17.20;;;;;;;12.39;57.65;98245.65;103484;1303;23590;-25
2022/04/24 08:53:11;;;;;;;27.90;15.60;;;;;;;12.38;58.39;98245.73;103390;1303;24660;-29
2022/04/24 08:55:40;;;;;;;14.50;11.50;;;;;;;12.49;57.93;98241.77;103390;1303;23816;-31
2022/04/24 08:58:09;;;;;;;15.90;10.90;;;;;;;12.48;57.15;98246.09;103274;1303;23787;-25
2022/04/24 09:00:42;;;;;;;24.10;9.90;;;;;;;12.58;55.73;98242.65;103508;1303;22495;-24
2022/04/24 09:03:11;;;;;;;15.70;11.10;;;;;;;12.57;54.96;98240.15;103429;1303;24151;-29
2022/04/24 09:05:40;;;;;;;15.00;10.10;;;;;;;12.51;54.82;98241.64;103436;1303;24212;-25
2022/04/24 09:08:11;;;;;;;36.40;25.10;;;;;;;12.45;55.43;98242.38;103428;1303;23644;-29
2022/04/24 09:10:47;;;;;;;18.90;14.00;;;;;;;12.55;55.39;98239.45;103454;1303;24433;-23
2022/04/24 09:13:23;;;;;;;309.80;140.60;;;;;;;12.69;54.36;98238.77;103443;1303;23640;-27
2022/04/24 09:15:54;;;;;;;103.80;45.90;;;;;;;12.63;54.43;98240.42;103399;1303;23850;-28
2022/04/24 09:18:36;;;;;;;212.40;99.50;;;;;;;12.67;54.36;98237.60;103453;1303;24304;-28
2022/04/24 09:21:06;;;;;;;17.60;12.90;;;;;;;12.58;55.05;98238.02;103474;1303;22886;-27
2022/04/24 09:23:36;;;;;;;22.20;13.70;;;;;;;12.65;54.93;98235.31;103470;1303;22503;-27
2022/04/24 09:26:05;;;;;;;17.10;10.90;;;;;;;12.71;54.67;98231.70;103310;1303;25454;-31
2022/04/24 09:28:36;;;;;;;26.20;13.00;;;;;;;12.78;54.46;98232.48;103410;1303;22684;-25
2022/04/24 09:31:05;;;;;;;22.70;9.80;;;;;;;12.86;54.03;98226.84;103463;1303;24129;-25
2022/04/24 09:33:36;;;;;;;10.20;7.80;;;;;;;12.90;53.67;98224.05;103464;1303;25351;-25
2022/04/24 09:36:06;;;;;;;13.90;10.20;;;;;;;12.79;54.27;98221.40;103430;1303;25012;-26
2022/04/24 09:38:40;;;;;;;13.30;8.00;;;;;;;12.84;54.80;98217.64;103444;1303;25376;-25
2022/04/24 09:41:14;;;;;;;21.10;11.90;;;;;;;13.14;53.33;98210.42;103367;1303;23875;-28
2022/04/24 09:43:43;;;;;;;17.10;9.70;;;;;;;13.09;54.07;98209.96;103444;1302;22949;-25
2022/04/24 09:46:12;;;;;;;22.50;9.80;;;;;;;13.25;53.99;98209.87;103502;1303;24215;-31
2022/04/24 09:48:50;;;;;;;14.70;8.60;;;;;;;13.33;53.24;98206.04;103499;1303;22974;-29
2022/04/24 09:51:20;;;;;;;7.70;6.90;;;;;;;13.62;53.03;98197.13;103289;1303;22499;-29
2022/04/24 09:53:49;;;;;;;7.60;6.70;;;;;;;14.18;50.98;98179.65;103465;1303;24243;-24
2022/04/24 09:56:18;;;;;;;8.10;7.30;;;;;;;14.23;50.19;98184.02;103438;1303;24295;-24
2022/04/24 09:58:47;;;;;;;8.40;6.20;;;;;;;14.22;50.95;98182.30;103454;1303;23993;-25
2022/04/24 10:01:17;;;;;;;7.80;7.00;;;;;;;14.45;49.53;98175.94;103362;1303;22778;-28
2022/04/24 10:03:46;;;;;;;9.90;7.40;;;;;;;14.43;49.37;98173.87;103486;1303;23950;-25
2022/04/24 10:06:15;;;;;;;12.40;9.30;;;;;;;14.39;49.74;98167.01;103490;1303;24240;-27
2022/04/24 10:08:44;;;;;;;9.80;8.80;;;;;;;14.40;49.69;98168.11;103495;1303;23976;-24
2022/04/24 10:11:13;;;;;;;10.60;9.50;;;;;;;14.32;49.70;98165.02;103493;1303;23843;-27
2022/04/24 10:13:44;;;;;;;14.80;7.80;;;;;;;14.42;49.91;98156.45;103424;1303;24971;-30
2022/04/24 10:16:18;;;;;;;18.80;15.00;;;;;;;14.64;50.18;98148.36;103309;1306;23774;-28
2022/04/24 10:18:49;;;;;;;38.30;18.20;;;;;;;14.87;48.85;98146.65;103431;1303;22729;-26
2022/04/24 10:21:22;;;;;;;64.10;33.20;;;;;;;14.78;48.35;98152.83;103461;1303;22517;-28
2022/04/24 10:23:51;;;;;;;;;;;;;;;14.58;48.75;98151.85;103347;1303;23583;-25
2022/04/24 10:26:22;;;;;;;23.80;18.10;;;;;;;14.46;49.21;98159.33;103450;1302;24242;-28
2022/04/24 10:29:01;;;;;;;18.70;14.20;;;;;;;14.37;49.56;98161.11;103462;1303;23791;-28
2022/04/24 10:31:31;;;;;;;19.70;13.50;;;;;;;14.45;49.24;98155.91;103488;1303;23651;-24
2022/04/24 10:34:06;;;;;;;19.80;13.20;;;;;;;14.40;49.61;98149.89;103398;1303;22502;-24
2022/04/24 10:36:35;;;;;;;10.60;7.70;;;;;;;14.11;50.56;98152.33;103486;1303;25060;-25
2022/04/24 10:39:15;;;;;;;13.20;9.70;;;;;;;13.94;50.37;98147.63;103486;1303;24220;-25
2022/04/24 10:41:54;;;;;;;10.30;7.60;;;;;;;13.89;51.33;98146.69;103350;1303;24223;-29
2022/04/24 10:44:24;;;;;;;12.80;9.10;;;;;;;13.92;50.46;98143.50;103449;1303;24238;-24
2022/04/24 10:46:57;;;;;;;10.50;6.90;;;;;;;13.97;50.27;98133.79;103477;1303;25202;-26
2022/04/24 10:49:32;;;;;;;;;;;;;;;13.76;51.03;98136.85;103464;1303;25037;-27
2022/04/24 10:52:03;;;;;;;18.00;12.20;;;;;;;13.64;51.45;98131.98;103297;1303;23924;-25
2022/04/24 10:54:34;;;;;;;10.10;7.60;;;;;;;13.61;51.88;98126.10;103293;1303;22516;-29
2022/04/24 10:57:10;;;;;;;12.00;7.40;;;;;;;13.53;52.01;98125.34;103481;1303;23597;-29
2022/04/24 10:59:44;;;;;;;10.90;7.70;;;;;;;13.56;52.03;98117.49;103480;1303;23606;-30
2022/04/24 11:02:13;;;;;;;16.50;8.20;;;;;;;13.45;52.26;98118.58;103424;1303;22488;-24
2022/04/24 11:04:42;;;;;;;13.20;10.50;;;;;;;13.26;53.22;98118.08;103456;1303;24288;-25
2022/04/24 11:07:20;;;;;;;9.00;8.20;;;;;;;13.26;53.06;98113.27;103402;1303;22635;-25
2022/04/24 11:10:01;;;;;;;19.90;12.90;;;;;;;13.51;52.07;98109.17;103416;1303;25037;-25
2022/04/24 11:12:31;;;;;;;122.80;16.50;;;;;;;13.34;52.83;98111.19;103441;1303;24364;-30
2022/04/24 11:15:03;;;;;;;30.80;22.40;;;;;;;13.42;52.38;98111.37;103455;1303;24364;-28
2022/04/24 11:17:33;;;;;;;128.80;57.90;;;;;;;13.25;52.81;98105.59;103461;1303;24243;-25
2022/04/24 11:20:08;;;;;;;63.50;32.40;;;;;;;13.34;52.75;98108.06;103449;1303;23772;-25
2022/04/24 11:22:45;;;;;;;49.40;26.90;;;;;;;13.20;53.57;98110.40;103413;1303;24246;-28
2022/04/24 11:25:16;;;;;;;50.50;28.60;;;;;;;13.27;53.78;98110.25;103457;1303;24249;-25